createdAt,value
2018-01-20T00:00:43.614Z,0.00
2018-01-20T00:01:43.478Z,0.00
2018-01-20T00:02:43.343Z,0.00
2018-01-20T00:03:43.209Z,0.00
2018-01-20T00:04:43.078Z,0.00
2018-01-20T00:05:42.944Z,0.00
2018-01-20T00:06:42.809Z,0.00
2018-01-20T00:07:42.676Z,0.00
2018-01-20T00:08:42.546Z,0.00
2018-01-20T00:09:42.409Z,0.00
2018-01-20T00:10:42.277Z,0.00
2018-01-20T00:11:42.143Z,0.00
2018-01-20T00:12:42.010Z,0.00
2018-01-20T00:13:41.876Z,0.00
2018-01-20T00:14:41.742Z,0.00
2018-01-20T00:15:41.612Z,0.00
2018-01-20T00:16:41.473Z,0.00
2018-01-20T00:17:41.341Z,0.00
2018-01-20T00:18:41.208Z,0.00
2018-01-20T00:19:41.075Z,0.00
2018-01-20T00:20:40.941Z,0.00
2018-01-20T00:21:40.807Z,0.00
2018-01-20T00:22:40.674Z,0.00
2018-01-20T00:23:40.538Z,0.00
2018-01-20T00:24:40.408Z,0.00
2018-01-20T00:25:40.280Z,0.00
2018-01-20T00:26:40.138Z,0.00
2018-01-20T00:27:40.006Z,0.00
2018-01-20T00:28:39.869Z,0.00
2018-01-20T00:29:39.740Z,0.00
2018-01-20T00:30:39.601Z,0.00
2018-01-20T00:31:39.468Z,0.00
2018-01-20T00:32:39.336Z,0.00
2018-01-20T00:33:39.203Z,0.00
2018-01-20T00:34:39.066Z,0.00
2018-01-20T00:35:38.933Z,0.00
2018-01-20T00:36:38.803Z,0.00
2018-01-20T00:37:38.668Z,0.00
2018-01-20T00:38:38.532Z,0.00
2018-01-20T00:39:38.400Z,0.00
2018-01-20T00:40:38.266Z,0.00
2018-01-20T00:41:38.131Z,0.00
2018-01-20T00:42:37.997Z,0.00
2018-01-20T00:43:37.862Z,0.00
2018-01-20T00:44:37.733Z,0.00
2018-01-20T00:45:37.594Z,0.00
2018-01-20T00:46:37.458Z,0.00
2018-01-20T00:47:37.325Z,0.00
2018-01-20T00:48:37.218Z,0.00
2018-01-20T00:49:37.058Z,0.00
2018-01-20T00:50:36.941Z,0.00
2018-01-20T00:51:36.789Z,0.00
2018-01-20T00:52:36.656Z,0.00
2018-01-20T00:53:36.523Z,0.00
2018-01-20T00:54:36.390Z,0.00
2018-01-20T00:55:36.254Z,0.00
2018-01-20T00:56:36.118Z,0.00
2018-01-20T00:57:35.985Z,0.00
2018-01-20T00:58:35.851Z,0.00
2018-01-20T00:59:35.716Z,0.00
2018-01-20T01:00:35.581Z,0.00
2018-01-20T01:01:35.455Z,0.00
2018-01-20T01:02:35.319Z,0.00
2018-01-20T01:03:35.221Z,0.00
2018-01-20T01:04:35.047Z,0.00
2018-01-20T01:05:34.913Z,0.00
2018-01-20T01:06:34.777Z,0.00
2018-01-20T01:07:34.643Z,0.00
2018-01-20T01:08:34.510Z,0.00
2018-01-20T01:09:34.376Z,0.00
2018-01-20T01:10:34.244Z,0.00
2018-01-20T01:11:34.109Z,0.00
2018-01-20T01:12:33.975Z,0.00
2018-01-20T01:13:33.841Z,0.00
2018-01-20T01:14:33.704Z,0.00
2018-01-20T01:15:33.571Z,0.00
2018-01-20T01:16:33.437Z,0.00
2018-01-20T01:17:33.304Z,0.00
2018-01-20T01:18:33.170Z,0.00
2018-01-20T01:19:33.038Z,0.00
2018-01-20T01:20:32.903Z,0.00
2018-01-20T01:21:32.769Z,0.00
2018-01-20T01:22:32.633Z,0.00
2018-01-20T01:23:32.501Z,0.00
2018-01-20T01:24:32.367Z,0.00
2018-01-20T01:25:32.232Z,0.00
2018-01-20T01:26:32.103Z,0.00
2018-01-20T01:27:31.964Z,0.00
2018-01-20T01:28:31.832Z,0.00
2018-01-20T01:29:31.696Z,0.00
2018-01-20T01:30:31.563Z,0.00
2018-01-20T01:31:31.430Z,0.00
2018-01-20T01:32:31.296Z,0.00
2018-01-20T01:33:31.163Z,0.00
2018-01-20T01:34:31.032Z,0.00
2018-01-20T01:35:30.895Z,0.00
2018-01-20T01:36:30.762Z,0.00
2018-01-20T01:37:30.626Z,0.00
2018-01-20T01:38:30.490Z,0.00
2018-01-20T01:39:30.360Z,0.00
2018-01-20T01:40:30.226Z,0.00
2018-01-20T01:41:30.093Z,0.00
2018-01-20T01:42:29.976Z,0.00
2018-01-20T01:43:29.824Z,0.00
2018-01-20T01:44:29.692Z,0.00
2018-01-20T01:45:29.556Z,0.00
2018-01-20T01:46:29.423Z,0.00
2018-01-20T01:47:29.287Z,0.00
2018-01-20T01:48:29.154Z,0.00
2018-01-20T01:49:29.020Z,0.00
2018-01-20T01:50:28.886Z,0.00
2018-01-20T01:51:28.751Z,0.00
2018-01-20T01:52:28.617Z,0.00
2018-01-20T01:53:28.486Z,0.00
2018-01-20T01:54:28.351Z,0.00
2018-01-20T01:55:28.217Z,0.00
2018-01-20T01:56:28.084Z,0.00
2018-01-20T01:57:27.953Z,0.00
2018-01-20T01:58:27.816Z,0.00
2018-01-20T01:59:27.683Z,0.00
2018-01-20T02:00:27.549Z,0.00
2018-01-20T02:01:27.416Z,0.00
2018-01-20T02:02:27.286Z,0.00
2018-01-20T02:03:27.151Z,0.00
2018-01-20T02:04:27.022Z,0.00
2018-01-20T02:05:26.886Z,0.00
2018-01-20T02:06:26.748Z,0.00
2018-01-20T02:07:26.614Z,0.00
2018-01-20T02:08:26.481Z,0.00
2018-01-20T02:09:26.349Z,0.00
2018-01-20T02:10:26.214Z,0.00
2018-01-20T02:11:26.085Z,0.00
2018-01-20T02:12:25.946Z,0.00
2018-01-20T02:13:25.813Z,0.00
2018-01-20T02:14:25.679Z,0.00
2018-01-20T02:15:25.546Z,0.00
2018-01-20T02:16:25.413Z,0.00
2018-01-20T02:17:25.279Z,0.00
2018-01-20T02:18:25.147Z,0.00
2018-01-20T02:19:25.010Z,0.00
2018-01-20T02:20:24.877Z,0.00
2018-01-20T02:21:24.743Z,0.00
2018-01-20T02:22:24.613Z,0.00
2018-01-20T02:23:24.475Z,0.00
2018-01-20T02:24:24.343Z,0.00
2018-01-20T02:25:24.246Z,0.00
2018-01-20T02:26:24.072Z,0.00
2018-01-20T02:27:23.942Z,0.00
2018-01-20T02:28:23.806Z,0.00
2018-01-20T02:29:23.671Z,0.00
2018-01-20T02:30:23.536Z,0.00
2018-01-20T02:31:23.406Z,0.00
2018-01-20T02:32:23.273Z,0.00
2018-01-20T02:33:23.140Z,0.00
2018-01-20T02:34:23.000Z,0.00
2018-01-20T02:35:22.868Z,0.00
2018-01-20T02:36:22.733Z,0.00
2018-01-20T02:37:22.599Z,0.00
2018-01-20T02:38:22.463Z,0.00
2018-01-20T02:39:22.329Z,0.00
2018-01-20T02:40:22.214Z,0.00
2018-01-20T02:41:22.061Z,0.00
2018-01-20T02:42:21.926Z,0.00
2018-01-20T02:43:21.791Z,0.00
2018-01-20T02:44:21.660Z,0.00
2018-01-20T02:45:21.526Z,0.00
2018-01-20T02:46:21.388Z,0.00
2018-01-20T02:47:21.254Z,0.00
2018-01-20T02:48:21.119Z,0.00
2018-01-20T02:49:20.985Z,0.00
2018-01-20T02:50:20.851Z,0.00
2018-01-20T02:51:20.716Z,0.00
2018-01-20T02:52:20.582Z,0.00
2018-01-20T02:53:20.447Z,0.00
2018-01-20T02:54:20.312Z,0.00
2018-01-20T02:55:20.178Z,0.00
2018-01-20T02:56:20.044Z,0.00
2018-01-20T02:57:19.916Z,0.00
2018-01-20T02:58:19.776Z,0.00
2018-01-20T02:59:19.638Z,0.00
2018-01-20T03:00:19.507Z,0.00
2018-01-20T03:01:19.371Z,0.00
2018-01-20T03:02:19.236Z,0.00
2018-01-20T03:03:19.100Z,0.00
2018-01-20T03:04:18.966Z,0.00
2018-01-20T03:05:18.831Z,0.00
2018-01-20T03:06:18.695Z,0.00
2018-01-20T03:07:18.560Z,0.00
2018-01-20T03:08:18.427Z,0.00
2018-01-20T03:09:18.290Z,0.00
2018-01-20T03:10:18.156Z,0.00
2018-01-20T03:11:18.019Z,0.00
2018-01-20T03:12:17.886Z,0.00
2018-01-20T03:13:17.753Z,0.00
2018-01-20T03:14:17.615Z,0.00
2018-01-20T03:15:17.480Z,0.00
2018-01-20T03:16:17.345Z,0.00
2018-01-20T03:17:17.211Z,0.00
2018-01-20T03:18:17.072Z,0.00
2018-01-20T03:19:16.938Z,0.00
2018-01-20T03:20:16.805Z,0.00
2018-01-20T03:21:16.671Z,0.00
2018-01-20T03:22:16.533Z,0.00
2018-01-20T03:23:16.397Z,0.00
2018-01-20T03:24:16.261Z,0.00
2018-01-20T03:25:16.126Z,0.00
2018-01-20T03:26:15.990Z,0.00
2018-01-20T03:27:15.854Z,0.00
2018-01-20T03:28:15.719Z,0.00
2018-01-20T03:29:15.582Z,0.00
2018-01-20T03:30:15.449Z,0.00
2018-01-20T03:31:15.313Z,0.00
2018-01-20T03:32:15.178Z,0.00
2018-01-20T03:33:15.041Z,0.00
2018-01-20T03:34:14.904Z,0.00
2018-01-20T03:35:14.769Z,0.00
2018-01-20T03:36:14.635Z,0.00
2018-01-20T03:37:14.499Z,0.00
2018-01-20T03:38:14.362Z,0.00
2018-01-20T03:39:14.225Z,0.00
2018-01-20T03:40:14.090Z,0.00
2018-01-20T03:41:13.954Z,0.00
2018-01-20T03:42:13.818Z,0.00
2018-01-20T03:43:13.681Z,0.00
2018-01-20T03:44:13.547Z,0.00
2018-01-20T03:45:13.411Z,0.00
2018-01-20T03:46:13.272Z,0.00
2018-01-20T03:47:13.138Z,0.00
2018-01-20T03:48:13.003Z,0.00
2018-01-20T03:49:12.867Z,0.00
2018-01-20T03:50:12.731Z,0.00
2018-01-20T03:51:12.594Z,0.00
2018-01-20T03:52:12.457Z,0.00
2018-01-20T03:53:12.322Z,0.00
2018-01-20T03:54:12.186Z,0.00
2018-01-20T03:55:12.050Z,0.00
2018-01-20T03:56:11.914Z,0.00
2018-01-20T03:57:11.778Z,0.00
2018-01-20T03:58:11.639Z,0.00
2018-01-20T03:59:11.504Z,0.00
2018-01-20T04:00:11.370Z,0.00
2018-01-20T04:01:11.241Z,0.00
2018-01-20T04:02:11.100Z,0.00
2018-01-20T04:03:10.958Z,0.00
2018-01-20T04:04:10.822Z,0.00
2018-01-20T04:05:10.686Z,0.00
2018-01-20T04:06:10.551Z,0.00
2018-01-20T04:07:10.414Z,0.00
2018-01-20T04:08:10.278Z,0.00
2018-01-20T04:09:10.141Z,0.00
2018-01-20T04:10:10.006Z,0.00
2018-01-20T04:11:09.868Z,0.00
2018-01-20T04:12:09.739Z,0.00
2018-01-20T04:13:09.599Z,0.00
2018-01-20T04:14:09.459Z,0.00
2018-01-20T04:15:09.324Z,0.00
2018-01-20T04:16:09.185Z,0.00
2018-01-20T04:17:09.053Z,0.00
2018-01-20T04:18:08.917Z,0.00
2018-01-20T04:19:08.780Z,0.00
2018-01-20T04:20:08.644Z,0.00
2018-01-20T04:21:08.506Z,0.00
2018-01-20T04:22:08.371Z,0.00
2018-01-20T04:23:08.233Z,0.00
2018-01-20T04:24:08.098Z,0.00
2018-01-20T04:25:07.963Z,0.00
2018-01-20T04:26:07.824Z,0.00
2018-01-20T04:27:07.687Z,0.00
2018-01-20T04:28:07.552Z,0.00
2018-01-20T04:29:07.422Z,0.00
2018-01-20T04:30:07.282Z,0.00
2018-01-20T04:31:07.142Z,0.00
2018-01-20T04:32:07.005Z,0.00
2018-01-20T04:33:06.871Z,0.00
2018-01-20T04:34:06.730Z,0.00
2018-01-20T04:35:06.596Z,0.00
2018-01-20T04:36:06.462Z,0.00
2018-01-20T04:37:06.327Z,0.00
2018-01-20T04:38:06.186Z,0.00
2018-01-20T04:39:06.052Z,0.00
2018-01-20T04:40:05.913Z,0.00
2018-01-20T04:41:05.784Z,0.00
2018-01-20T04:42:05.641Z,0.00
2018-01-20T04:43:05.511Z,0.00
2018-01-20T04:44:05.369Z,0.00
2018-01-20T04:45:05.231Z,0.00
2018-01-20T04:46:05.095Z,0.00
2018-01-20T04:47:04.959Z,0.00
2018-01-20T04:48:04.850Z,0.00
2018-01-20T04:49:04.685Z,0.00
2018-01-20T04:50:04.548Z,0.00
2018-01-20T04:51:04.413Z,0.00
2018-01-20T04:52:04.275Z,0.00
2018-01-20T04:53:04.142Z,0.00
2018-01-20T04:54:04.002Z,0.00
2018-01-20T04:55:03.864Z,0.00
2018-01-20T04:56:03.728Z,0.00
2018-01-20T04:57:03.593Z,0.00
2018-01-20T04:58:03.459Z,0.00
2018-01-20T04:59:03.324Z,0.00
2018-01-20T05:00:03.183Z,0.00
2018-01-20T05:01:03.048Z,0.00
2018-01-20T05:02:02.911Z,0.00
2018-01-20T05:03:02.776Z,0.00
2018-01-20T05:04:02.637Z,0.00
2018-01-20T05:05:02.502Z,0.00
2018-01-20T05:06:02.366Z,0.00
2018-01-20T05:07:02.227Z,0.00
2018-01-20T05:08:02.097Z,0.00
2018-01-20T05:09:01.956Z,0.00
2018-01-20T05:10:01.819Z,0.00
2018-01-20T05:11:01.679Z,0.00
2018-01-20T05:12:01.543Z,0.00
2018-01-20T05:13:01.409Z,0.00
2018-01-20T05:14:01.272Z,0.00
2018-01-20T05:15:01.134Z,0.00
2018-01-20T05:16:00.999Z,0.00
2018-01-20T05:17:00.865Z,0.00
2018-01-20T05:18:00.724Z,0.00
2018-01-20T05:19:00.591Z,0.00
2018-01-20T05:20:00.450Z,0.00
2018-01-20T05:21:00.314Z,0.00
2018-01-20T05:22:00.178Z,0.00
2018-01-20T05:23:00.042Z,0.00
2018-01-20T05:23:59.902Z,0.00
2018-01-20T05:24:59.768Z,0.00
2018-01-20T05:25:59.629Z,0.00
2018-01-20T05:26:59.492Z,0.00
2018-01-20T05:27:59.358Z,0.00
2018-01-20T05:28:59.220Z,0.00
2018-01-20T05:29:59.082Z,0.00
2018-01-20T05:30:58.948Z,0.00
2018-01-20T05:31:58.808Z,0.00
2018-01-20T05:32:58.674Z,0.00
2018-01-20T05:33:58.536Z,0.00
2018-01-20T05:34:58.401Z,0.00
2018-01-20T05:35:58.262Z,0.00
2018-01-20T05:36:58.126Z,0.00
2018-01-20T05:37:57.988Z,0.00
2018-01-20T05:38:57.852Z,0.00
2018-01-20T05:39:57.715Z,0.00
2018-01-20T05:40:57.580Z,0.00
2018-01-20T05:41:57.440Z,0.00
2018-01-20T05:42:57.314Z,0.00
2018-01-20T05:43:57.168Z,0.00
2018-01-20T05:44:57.032Z,0.00
2018-01-20T05:45:56.895Z,0.00
2018-01-20T05:46:56.758Z,0.00
2018-01-20T05:47:56.621Z,0.00
2018-01-20T05:48:56.485Z,0.00
2018-01-20T05:49:56.351Z,0.00
2018-01-20T05:50:56.210Z,0.00
2018-01-20T05:51:56.077Z,0.00
2018-01-20T05:52:55.937Z,0.00
2018-01-20T05:53:55.802Z,0.00
2018-01-20T05:54:55.664Z,0.00
2018-01-20T05:55:55.528Z,0.00
2018-01-20T05:56:55.392Z,0.00
2018-01-20T05:57:55.254Z,0.00
2018-01-20T05:58:55.119Z,0.00
2018-01-20T05:59:54.982Z,0.00
2018-01-20T06:00:54.851Z,0.00
2018-01-20T06:01:54.711Z,0.00
2018-01-20T06:02:54.579Z,0.00
2018-01-20T06:03:54.437Z,0.00
2018-01-20T06:04:54.301Z,0.00
2018-01-20T06:05:54.166Z,0.00
2018-01-20T06:06:54.028Z,0.00
2018-01-20T06:07:53.890Z,0.00
2018-01-20T06:08:54.029Z,0.00
2018-01-20T06:09:53.621Z,0.00
2018-01-20T06:10:53.481Z,0.00
2018-01-20T06:11:53.343Z,0.00
2018-01-20T06:12:53.208Z,0.00
2018-01-20T06:13:53.070Z,0.00
2018-01-20T06:14:52.940Z,0.00
2018-01-20T06:15:52.806Z,0.00
2018-01-20T06:16:52.662Z,0.00
2018-01-20T06:17:52.525Z,0.00
2018-01-20T06:18:52.388Z,0.00
2018-01-20T06:19:52.255Z,0.00
2018-01-20T06:20:52.115Z,0.00
2018-01-20T06:21:52.153Z,0.00
2018-01-20T06:22:51.851Z,0.00
2018-01-20T06:23:51.706Z,0.00
2018-01-20T06:24:51.574Z,0.00
2018-01-20T06:25:51.432Z,0.00
2018-01-20T06:26:51.299Z,0.00
2018-01-20T06:27:51.159Z,0.00
2018-01-20T06:28:51.025Z,0.00
2018-01-20T06:29:50.887Z,0.00
2018-01-20T06:30:50.750Z,0.00
2018-01-20T06:31:50.617Z,0.00
2018-01-20T06:32:50.477Z,0.00
2018-01-20T06:33:50.343Z,0.00
2018-01-20T06:34:50.220Z,0.00
2018-01-20T06:35:50.064Z,0.00
2018-01-20T06:36:49.929Z,0.00
2018-01-20T06:37:49.810Z,0.00
2018-01-20T06:38:49.658Z,0.00
2018-01-20T06:39:49.520Z,0.00
2018-01-20T06:40:49.380Z,0.00
2018-01-20T06:41:49.246Z,0.00
2018-01-20T06:42:49.109Z,0.00
2018-01-20T06:43:48.976Z,0.00
2018-01-20T06:44:48.834Z,0.00
2018-01-20T06:45:48.698Z,0.00
2018-01-20T06:46:48.559Z,0.00
2018-01-20T06:47:48.465Z,0.00
2018-01-20T06:48:48.304Z,0.00
2018-01-20T06:49:48.151Z,0.00
2018-01-20T06:50:48.014Z,0.00
2018-01-20T06:51:47.895Z,0.00
2018-01-20T06:52:47.740Z,0.00
2018-01-20T06:53:47.609Z,0.00
2018-01-20T06:54:47.470Z,0.00
2018-01-20T06:55:47.336Z,5.63
2018-01-20T06:56:47.195Z,5.63
2018-01-20T06:57:47.059Z,0.00
2018-01-20T06:58:46.924Z,5.63
2018-01-20T06:59:46.785Z,5.63
2018-01-20T07:00:46.649Z,5.63
2018-01-20T07:01:46.513Z,5.63
2018-01-20T07:02:46.375Z,5.63
2018-01-20T07:03:46.241Z,5.63
2018-01-20T07:04:46.104Z,5.63
2018-01-20T07:05:45.967Z,5.63
2018-01-20T07:06:45.831Z,5.63
2018-01-20T07:07:46.605Z,5.63
2018-01-20T07:08:45.562Z,11.25
2018-01-20T07:09:45.420Z,11.25
2018-01-20T07:10:45.288Z,11.25
2018-01-20T07:11:45.190Z,11.25
2018-01-20T07:12:45.014Z,11.25
2018-01-20T07:13:44.879Z,11.25
2018-01-20T07:14:44.741Z,11.25
2018-01-20T07:15:44.605Z,11.25
2018-01-20T07:16:44.469Z,16.88
2018-01-20T07:17:44.334Z,16.88
2018-01-20T07:18:44.197Z,16.88
2018-01-20T07:19:44.061Z,16.88
2018-01-20T07:20:43.923Z,16.88
2018-01-20T07:21:43.787Z,16.88
2018-01-20T07:22:43.655Z,16.88
2018-01-20T07:23:43.522Z,16.88
2018-01-20T07:24:43.382Z,16.88
2018-01-20T07:25:43.244Z,16.88
2018-01-20T07:26:43.110Z,16.88
2018-01-20T07:27:43.023Z,16.88
2018-01-20T07:28:42.839Z,22.50
2018-01-20T07:29:42.703Z,22.50
2018-01-20T07:30:42.567Z,22.50
2018-01-20T07:31:42.432Z,22.50
2018-01-20T07:32:42.297Z,28.13
2018-01-20T07:33:42.158Z,28.13
2018-01-20T07:34:42.024Z,28.13
2018-01-20T07:35:41.892Z,28.13
2018-01-20T07:36:41.754Z,33.75
2018-01-20T07:37:41.616Z,33.75
2018-01-20T07:38:41.482Z,33.75
2018-01-20T07:39:41.346Z,33.75
2018-01-20T07:40:41.210Z,33.75
2018-01-20T07:41:41.073Z,39.38
2018-01-20T07:42:40.938Z,39.38
2018-01-20T07:43:40.803Z,39.38
2018-01-20T07:44:40.671Z,39.38
2018-01-20T07:45:40.532Z,39.38
2018-01-20T07:46:40.396Z,39.38
2018-01-20T07:47:40.263Z,39.38
2018-01-20T07:48:40.125Z,39.38
2018-01-20T07:49:39.992Z,39.38
2018-01-20T07:50:39.855Z,39.38
2018-01-20T07:51:39.721Z,45.00
2018-01-20T07:52:39.585Z,45.00
2018-01-20T07:53:39.447Z,45.00
2018-01-20T07:54:39.315Z,50.63
2018-01-20T07:55:39.179Z,50.63
2018-01-20T07:56:39.044Z,50.63
2018-01-20T07:57:38.910Z,56.25
2018-01-20T07:58:38.771Z,56.25
2018-01-20T07:59:38.638Z,61.88
2018-01-20T08:00:38.503Z,61.88
2018-01-20T08:01:38.364Z,67.50
2018-01-20T08:02:38.230Z,67.50
2018-01-20T08:03:38.097Z,67.50
2018-01-20T08:04:37.961Z,67.50
2018-01-20T08:05:37.833Z,67.50
2018-01-20T08:06:37.692Z,61.88
2018-01-20T08:07:37.557Z,61.88
2018-01-20T08:08:37.423Z,61.88
2018-01-20T08:09:37.284Z,61.88
2018-01-20T08:10:37.279Z,61.88
2018-01-20T08:11:37.016Z,67.50
2018-01-20T08:12:36.884Z,67.50
2018-01-20T08:13:36.750Z,67.50
2018-01-20T08:14:36.612Z,67.50
2018-01-20T08:15:36.479Z,73.13
2018-01-20T08:16:36.344Z,78.75
2018-01-20T08:17:36.209Z,84.38
2018-01-20T08:18:36.083Z,84.38
2018-01-20T08:19:36.159Z,90.00
2018-01-20T08:20:35.809Z,95.63
2018-01-20T08:21:35.683Z,95.63
2018-01-20T08:22:35.546Z,95.63
2018-01-20T08:23:35.506Z,95.63
2018-01-20T08:24:35.280Z,95.63
2018-01-20T08:25:35.133Z,95.63
2018-01-20T08:26:34.999Z,95.63
2018-01-20T08:27:34.866Z,95.63
2018-01-20T08:28:34.729Z,95.63
2018-01-20T08:29:34.596Z,95.63
2018-01-20T08:30:34.461Z,95.63
2018-01-20T08:31:34.341Z,95.63
2018-01-20T08:32:34.191Z,101.25
2018-01-20T08:33:34.060Z,106.88
2018-01-20T08:34:33.923Z,106.88
2018-01-20T08:35:33.799Z,112.50
2018-01-20T08:36:33.656Z,112.50
2018-01-20T08:37:33.522Z,112.50
2018-01-20T08:38:33.389Z,118.13
2018-01-20T08:39:33.255Z,118.13
2018-01-20T08:40:33.120Z,123.75
2018-01-20T08:41:32.985Z,123.75
2018-01-20T08:42:32.850Z,129.38
2018-01-20T08:43:32.724Z,129.38
2018-01-20T08:44:32.588Z,129.38
2018-01-20T08:45:32.453Z,135.00
2018-01-20T08:46:32.321Z,135.00
2018-01-20T08:47:32.182Z,135.00
2018-01-20T08:48:32.054Z,140.63
2018-01-20T08:49:31.921Z,140.63
2018-01-20T08:50:31.784Z,146.25
2018-01-20T08:51:31.657Z,146.25
2018-01-20T08:52:31.516Z,146.25
2018-01-20T08:53:31.382Z,146.25
2018-01-20T08:54:31.249Z,146.25
2018-01-20T08:55:31.116Z,151.88
2018-01-20T08:56:30.982Z,146.25
2018-01-20T08:57:30.849Z,146.25
2018-01-20T08:58:30.716Z,140.63
2018-01-20T08:59:30.584Z,135.00
2018-01-20T09:00:30.451Z,135.00
2018-01-20T09:01:30.318Z,135.00
2018-01-20T09:02:30.185Z,135.00
2018-01-20T09:03:30.055Z,135.00
2018-01-20T09:04:29.920Z,135.00
2018-01-20T09:05:29.785Z,135.00
2018-01-20T09:06:29.653Z,135.00
2018-01-20T09:07:29.519Z,135.00
2018-01-20T09:08:29.388Z,146.25
2018-01-20T09:09:29.260Z,146.25
2018-01-20T09:10:29.157Z,151.88
2018-01-20T09:11:29.049Z,157.50
2018-01-20T09:12:28.910Z,157.50
2018-01-20T09:13:28.769Z,157.50
2018-01-20T09:14:28.590Z,163.13
2018-01-20T09:15:28.456Z,157.50
2018-01-20T09:16:28.327Z,163.13
2018-01-20T09:17:28.191Z,168.75
2018-01-20T09:18:28.214Z,168.75
2018-01-20T09:19:27.927Z,168.75
2018-01-20T09:20:27.793Z,168.75
2018-01-20T09:21:27.660Z,163.13
2018-01-20T09:22:27.530Z,157.50
2018-01-20T09:23:27.397Z,157.50
2018-01-20T09:24:27.267Z,163.13
2018-01-20T09:25:27.132Z,174.38
2018-01-20T09:26:27.001Z,180.00
2018-01-20T09:27:26.864Z,180.00
2018-01-20T09:28:26.733Z,180.00
2018-01-20T09:29:26.602Z,185.63
2018-01-20T09:30:26.469Z,185.63
2018-01-20T09:31:26.337Z,185.63
2018-01-20T09:32:26.203Z,185.63
2018-01-20T09:33:26.070Z,185.63
2018-01-20T09:34:25.938Z,191.25
2018-01-20T09:35:25.804Z,202.50
2018-01-20T09:36:25.677Z,202.50
2018-01-20T09:37:25.539Z,202.50
2018-01-20T09:38:25.407Z,191.25
2018-01-20T09:39:25.273Z,191.25
2018-01-20T09:40:25.142Z,202.50
2018-01-20T09:41:25.012Z,202.50
2018-01-20T09:42:24.879Z,196.88
2018-01-20T09:43:24.744Z,196.88
2018-01-20T09:44:24.616Z,202.50
2018-01-20T09:45:24.483Z,213.75
2018-01-20T09:46:24.352Z,208.13
2018-01-20T09:47:24.219Z,208.13
2018-01-20T09:48:24.089Z,191.25
2018-01-20T09:49:23.954Z,191.25
2018-01-20T09:50:23.823Z,191.25
2018-01-20T09:51:23.693Z,196.88
2018-01-20T09:52:23.560Z,208.13
2018-01-20T09:53:23.430Z,213.75
2018-01-20T09:54:23.298Z,230.63
2018-01-20T09:55:23.165Z,236.25
2018-01-20T09:56:23.033Z,241.88
2018-01-20T09:57:22.912Z,258.75
2018-01-20T09:58:22.771Z,258.75
2018-01-20T09:59:22.637Z,258.75
2018-01-20T10:00:22.517Z,258.75
2018-01-20T10:01:22.377Z,253.13
2018-01-20T10:02:22.266Z,247.50
2018-01-20T10:03:22.144Z,241.88
2018-01-20T10:04:21.984Z,241.88
2018-01-20T10:05:21.852Z,230.63
2018-01-20T10:06:21.720Z,219.38
2018-01-20T10:07:21.699Z,208.13
2018-01-20T10:08:21.456Z,202.50
2018-01-20T10:09:21.326Z,219.38
2018-01-20T10:10:21.197Z,219.38
2018-01-20T10:11:21.066Z,241.88
2018-01-20T10:12:20.933Z,253.13
2018-01-20T10:13:20.801Z,253.13
2018-01-20T10:14:20.683Z,270.00
2018-01-20T10:15:20.538Z,264.38
2018-01-20T10:16:20.408Z,286.88
2018-01-20T10:17:20.274Z,270.00
2018-01-20T10:18:20.142Z,264.38
2018-01-20T10:19:20.015Z,275.63
2018-01-20T10:20:19.885Z,264.38
2018-01-20T10:21:19.753Z,270.00
2018-01-20T10:22:19.618Z,275.63
2018-01-20T10:23:19.516Z,286.88
2018-01-20T10:24:19.359Z,292.50
2018-01-20T10:25:19.226Z,326.25
2018-01-20T10:26:19.117Z,337.50
2018-01-20T10:27:18.961Z,337.50
2018-01-20T10:28:18.830Z,354.38
2018-01-20T10:29:18.704Z,320.63
2018-01-20T10:30:18.569Z,303.75
2018-01-20T10:31:18.439Z,286.88
2018-01-20T10:32:18.308Z,281.25
2018-01-20T10:33:18.177Z,275.63
2018-01-20T10:34:18.043Z,270.00
2018-01-20T10:35:17.978Z,270.00
2018-01-20T10:36:17.782Z,270.00
2018-01-20T10:37:17.649Z,258.75
2018-01-20T10:38:17.521Z,258.75
2018-01-20T10:39:17.395Z,264.38
2018-01-20T10:40:17.256Z,281.25
2018-01-20T10:41:17.126Z,298.13
2018-01-20T10:42:16.994Z,298.13
2018-01-20T10:43:16.866Z,303.75
2018-01-20T10:44:16.732Z,298.13
2018-01-20T10:45:16.601Z,298.13
2018-01-20T10:46:16.466Z,309.38
2018-01-20T10:47:16.337Z,315.00
2018-01-20T10:48:16.208Z,326.25
2018-01-20T10:49:16.076Z,320.63
2018-01-20T10:50:15.944Z,309.38
2018-01-20T10:51:15.811Z,337.50
2018-01-20T10:52:15.684Z,365.63
2018-01-20T10:53:15.548Z,371.25
2018-01-20T10:54:15.419Z,354.38
2018-01-20T10:55:15.286Z,331.88
2018-01-20T10:56:15.157Z,309.38
2018-01-20T10:57:15.026Z,309.38
2018-01-20T10:58:14.907Z,303.75
2018-01-20T10:59:14.855Z,298.13
2018-01-20T11:00:14.636Z,292.50
2018-01-20T11:01:14.501Z,286.88
2018-01-20T11:02:14.372Z,298.13
2018-01-20T11:03:14.415Z,331.88
2018-01-20T11:04:14.114Z,343.13
2018-01-20T11:05:13.981Z,360.00
2018-01-20T11:06:13.866Z,360.00
2018-01-20T11:07:13.722Z,371.25
2018-01-20T11:08:13.591Z,376.88
2018-01-20T11:09:13.459Z,393.75
2018-01-20T11:10:13.331Z,393.75
2018-01-20T11:11:13.201Z,388.13
2018-01-20T11:12:13.148Z,388.13
2018-01-20T11:13:12.941Z,382.50
2018-01-20T11:14:13.008Z,354.38
2018-01-20T11:15:12.682Z,337.50
2018-01-20T11:16:12.557Z,320.63
2018-01-20T11:17:12.504Z,320.63
2018-01-20T11:18:12.334Z,309.38
2018-01-20T11:19:12.165Z,286.88
2018-01-20T11:20:12.034Z,281.25
2018-01-20T11:21:11.903Z,286.88
2018-01-20T11:22:11.775Z,281.25
2018-01-20T11:23:11.651Z,275.63
2018-01-20T11:24:11.517Z,275.63
2018-01-20T11:25:11.388Z,298.13
2018-01-20T11:26:11.260Z,315.00
2018-01-20T11:27:11.125Z,303.75
2018-01-20T11:28:10.995Z,331.88
2018-01-20T11:29:10.869Z,315.00
2018-01-20T11:30:10.743Z,326.25
2018-01-20T11:31:10.608Z,315.00
2018-01-20T11:32:10.531Z,315.00
2018-01-20T11:33:10.351Z,326.25
2018-01-20T11:34:10.252Z,331.88
2018-01-20T11:35:10.090Z,337.50
2018-01-20T11:36:09.959Z,331.88
2018-01-20T11:37:09.828Z,348.75
2018-01-20T11:38:09.700Z,354.38
2018-01-20T11:39:09.567Z,343.13
2018-01-20T11:40:09.654Z,343.13
2018-01-20T11:41:09.308Z,343.13
2018-01-20T11:42:09.177Z,337.50
2018-01-20T11:43:09.045Z,337.50
2018-01-20T11:44:08.914Z,343.13
2018-01-20T11:45:08.785Z,337.50
2018-01-20T11:46:08.653Z,337.50
2018-01-20T11:47:08.522Z,343.13
2018-01-20T11:48:08.393Z,343.13
2018-01-20T11:49:08.307Z,337.50
2018-01-20T11:50:08.133Z,331.88
2018-01-20T11:51:08.037Z,326.25
2018-01-20T11:52:07.870Z,320.63
2018-01-20T11:53:07.741Z,315.00
2018-01-20T11:54:07.609Z,320.63
2018-01-20T11:55:07.479Z,315.00
2018-01-20T11:56:07.347Z,315.00
2018-01-20T11:57:07.247Z,309.38
2018-01-20T11:58:07.086Z,309.38
2018-01-20T11:59:06.955Z,309.38
2018-01-20T12:00:06.829Z,309.38
2018-01-20T12:01:06.691Z,315.00
2018-01-20T12:02:06.567Z,309.38
2018-01-20T12:03:06.434Z,303.75
2018-01-20T12:04:06.307Z,303.75
2018-01-20T12:05:06.174Z,303.75
2018-01-20T12:06:06.046Z,315.00
2018-01-20T12:07:05.913Z,320.63
2018-01-20T12:08:05.785Z,315.00
2018-01-20T12:09:05.651Z,309.38
2018-01-20T12:10:05.520Z,320.63
2018-01-20T12:11:05.388Z,331.88
2018-01-20T12:12:05.353Z,343.13
2018-01-20T12:13:05.135Z,354.38
2018-01-20T12:14:04.996Z,421.88
2018-01-20T12:15:04.870Z,410.63
2018-01-20T12:16:04.735Z,421.88
2018-01-20T12:17:04.680Z,405.00
2018-01-20T12:18:04.476Z,399.38
2018-01-20T12:19:04.346Z,376.88
2018-01-20T12:20:04.221Z,354.38
2018-01-20T12:21:04.083Z,348.75
2018-01-20T12:22:03.952Z,343.13
2018-01-20T12:23:03.823Z,315.00
2018-01-20T12:24:03.693Z,315.00
2018-01-20T12:25:03.593Z,348.75
2018-01-20T12:26:03.432Z,382.50
2018-01-20T12:27:03.303Z,365.63
2018-01-20T12:28:03.171Z,371.25
2018-01-20T12:29:03.104Z,388.13
2018-01-20T12:30:02.912Z,410.63
2018-01-20T12:31:02.782Z,427.50
2018-01-20T12:32:02.650Z,433.13
2018-01-20T12:33:02.524Z,461.25
2018-01-20T12:34:02.391Z,466.88
2018-01-20T12:35:02.262Z,461.25
2018-01-20T12:36:02.134Z,466.88
2018-01-20T12:37:02.000Z,461.25
2018-01-20T12:38:01.873Z,444.38
2018-01-20T12:39:01.742Z,433.13
2018-01-20T12:40:01.613Z,433.13
2018-01-20T12:41:01.481Z,416.25
2018-01-20T12:42:01.352Z,376.88
2018-01-20T12:43:01.231Z,360.00
2018-01-20T12:44:01.093Z,343.13
2018-01-20T12:45:00.965Z,326.25
2018-01-20T12:46:00.835Z,320.63
2018-01-20T12:47:00.704Z,331.88
2018-01-20T12:48:00.577Z,354.38
2018-01-20T12:49:00.447Z,360.00
2018-01-20T12:50:00.321Z,343.13
2018-01-20T12:51:00.211Z,331.88
2018-01-20T12:52:00.060Z,331.88
2018-01-20T12:52:59.931Z,331.88
2018-01-20T12:53:59.803Z,348.75
2018-01-20T12:54:59.677Z,365.63
2018-01-20T12:55:59.543Z,371.25